sensor_id;sensor_type;location;lat;lon;timestamp;P1;durP1;ratioP1;P2;durP2;ratioP2
66189;SDS011;52992;52.084;5.412;2022-09-24T00:01:22;29.40;;;19.13;;
66189;SDS011;52992;52.084;5.412;2022-09-24T00:03:52;28.13;;;18.50;;
66189;SDS011;52992;52.084;5.412;2022-09-24T00:06:21;26.63;;;18.73;;
66189;SDS011;52992;52.084;5.412;2022-09-24T00:08:49;30.80;;;18.50;;
66189;SDS011;52992;52.084;5.412;2022-09-24T00:11:17;27.13;;;17.90;;
66189;SDS011;52992;52.084;5.412;2022-09-24T00:13:48;26.33;;;17.77;;
66189;SDS011;52992;52.084;5.412;2022-09-24T00:16:16;26.40;;;17.37;;
66189;SDS011;52992;52.084;5.412;2022-09-24T00:18:44;25.97;;;17.20;;
66189;SDS011;52992;52.084;5.412;2022-09-24T00:21:20;27.27;;;17.67;;
66189;SDS011;52992;52.084;5.412;2022-09-24T00:23:57;26.13;;;17.73;;
66189;SDS011;52992;52.084;5.412;2022-09-24T00:26:25;23.00;;;15.40;;
66189;SDS011;52992;52.084;5.412;2022-09-24T00:29:16;23.43;;;15.53;;
66189;SDS011;52992;52.084;5.412;2022-09-24T00:31:45;25.67;;;16.00;;
66189;SDS011;52992;52.084;5.412;2022-09-24T00:34:12;23.73;;;15.97;;
66189;SDS011;52992;52.084;5.412;2022-09-24T00:36:39;23.03;;;16.00;;
66189;SDS011;52992;52.084;5.412;2022-09-24T00:39:06;24.27;;;15.30;;
66189;SDS011;52992;52.084;5.412;2022-09-24T00:41:34;25.40;;;15.37;;
66189;SDS011;52992;52.084;5.412;2022-09-24T00:47:15;22.20;;;14.27;;
66189;SDS011;52992;52.084;5.412;2022-09-24T00:49:44;22.33;;;14.57;;
66189;SDS011;52992;52.084;5.412;2022-09-24T00:52:14;21.13;;;13.57;;
66189;SDS011;52992;52.084;5.412;2022-09-24T00:54:41;22.40;;;15.80;;
66189;SDS011;52992;52.084;5.412;2022-09-24T00:57:10;23.43;;;15.80;;
66189;SDS011;52992;52.084;5.412;2022-09-24T00:59:38;23.00;;;14.80;;
66189;SDS011;52992;52.084;5.412;2022-09-24T01:02:07;23.83;;;15.23;;
66189;SDS011;52992;52.084;5.412;2022-09-24T01:04:34;25.90;;;16.50;;
66189;SDS011;52992;52.084;5.412;2022-09-24T01:07:01;23.67;;;16.17;;
66189;SDS011;52992;52.084;5.412;2022-09-24T01:09:28;27.90;;;16.37;;
66189;SDS011;52992;52.084;5.412;2022-09-24T01:20:32;27.90;;;17.13;;
66189;SDS011;52992;52.084;5.412;2022-09-24T01:23:26;28.37;;;17.23;;
66189;SDS011;52992;52.084;5.412;2022-09-24T01:32:00;28.57;;;17.17;;
66189;SDS011;52992;52.084;5.412;2022-09-24T01:34:43;30.03;;;17.77;;
66189;SDS011;52992;52.084;5.412;2022-09-24T01:37:32;33.80;;;19.70;;
66189;SDS011;52992;52.084;5.412;2022-09-24T01:40:02;29.97;;;18.47;;
66189;SDS011;52992;52.084;5.412;2022-09-24T01:42:31;33.27;;;18.77;;
66189;SDS011;52992;52.084;5.412;2022-09-24T01:44:59;29.77;;;18.17;;
66189;SDS011;52992;52.084;5.412;2022-09-24T01:47:31;34.23;;;19.73;;
66189;SDS011;52992;52.084;5.412;2022-09-24T01:50:09;33.03;;;20.23;;
66189;SDS011;52992;52.084;5.412;2022-09-24T01:52:49;32.27;;;19.60;;
66189;SDS011;52992;52.084;5.412;2022-09-24T01:55:24;30.93;;;19.40;;
66189;SDS011;52992;52.084;5.412;2022-09-24T01:57:58;34.07;;;19.60;;
66189;SDS011;52992;52.084;5.412;2022-09-24T02:00:40;30.23;;;18.63;;
66189;SDS011;52992;52.084;5.412;2022-09-24T02:03:14;31.23;;;19.07;;
66189;SDS011;52992;52.084;5.412;2022-09-24T02:05:49;34.83;;;19.57;;
66189;SDS011;52992;52.084;5.412;2022-09-24T02:08:24;33.10;;;20.50;;
66189;SDS011;52992;52.084;5.412;2022-09-24T02:11:03;34.90;;;20.50;;
66189;SDS011;52992;52.084;5.412;2022-09-24T02:13:32;34.47;;;20.20;;
66189;SDS011;52992;52.084;5.412;2022-09-24T02:16:05;36.40;;;21.23;;
66189;SDS011;52992;52.084;5.412;2022-09-24T02:18:35;31.77;;;20.07;;
66189;SDS011;52992;52.084;5.412;2022-09-24T02:21:07;36.77;;;20.97;;
66189;SDS011;52992;52.084;5.412;2022-09-24T02:23:37;35.57;;;20.20;;
66189;SDS011;52992;52.084;5.412;2022-09-24T02:26:08;36.97;;;20.70;;
66189;SDS011;52992;52.084;5.412;2022-09-24T02:28:36;33.53;;;20.57;;
66189;SDS011;52992;52.084;5.412;2022-09-24T02:31:07;33.70;;;19.07;;
66189;SDS011;52992;52.084;5.412;2022-09-24T02:33:48;33.83;;;18.57;;
66189;SDS011;52992;52.084;5.412;2022-09-24T02:36:36;31.27;;;18.77;;
66189;SDS011;52992;52.084;5.412;2022-09-24T02:39:04;32.77;;;19.37;;
66189;SDS011;52992;52.084;5.412;2022-09-24T02:41:31;32.63;;;18.97;;
66189;SDS011;52992;52.084;5.412;2022-09-24T02:43:59;31.97;;;18.83;;
66189;SDS011;52992;52.084;5.412;2022-09-24T02:46:26;30.07;;;18.37;;
66189;SDS011;52992;52.084;5.412;2022-09-24T02:48:53;32.77;;;17.27;;
66189;SDS011;52992;52.084;5.412;2022-09-24T02:51:20;31.67;;;18.07;;
66189;SDS011;52992;52.084;5.412;2022-09-24T02:53:47;28.80;;;17.20;;
66189;SDS011;52992;52.084;5.412;2022-09-24T02:56:14;29.57;;;17.23;;
66189;SDS011;52992;52.084;5.412;2022-09-24T02:58:41;32.20;;;17.13;;
66189;SDS011;52992;52.084;5.412;2022-09-24T03:01:08;29.20;;;17.67;;
66189;SDS011;52992;52.084;5.412;2022-09-24T03:03:35;28.93;;;16.80;;
66189;SDS011;52992;52.084;5.412;2022-09-24T03:06:02;31.77;;;18.10;;
66189;SDS011;52992;52.084;5.412;2022-09-24T03:08:30;30.97;;;18.40;;
66189;SDS011;52992;52.084;5.412;2022-09-24T03:10:58;32.47;;;19.37;;
66189;SDS011;52992;52.084;5.412;2022-09-24T03:13:27;30.33;;;18.23;;
66189;SDS011;52992;52.084;5.412;2022-09-24T03:15:54;30.30;;;19.60;;
66189;SDS011;52992;52.084;5.412;2022-09-24T03:18:21;33.83;;;18.53;;
66189;SDS011;52992;52.084;5.412;2022-09-24T03:20:59;31.57;;;18.10;;
66189;SDS011;52992;52.084;5.412;2022-09-24T03:23:27;32.77;;;18.17;;
66189;SDS011;52992;52.084;5.412;2022-09-24T03:25:54;29.77;;;17.87;;
66189;SDS011;52992;52.084;5.412;2022-09-24T03:28:24;30.07;;;18.47;;
66189;SDS011;52992;52.084;5.412;2022-09-24T03:30:51;32.33;;;18.43;;
66189;SDS011;52992;52.084;5.412;2022-09-24T03:33:28;30.37;;;19.43;;
66189;SDS011;52992;52.084;5.412;2022-09-24T03:35:56;32.67;;;18.90;;
66189;SDS011;52992;52.084;5.412;2022-09-24T03:38:24;33.87;;;20.07;;
66189;SDS011;52992;52.084;5.412;2022-09-24T03:40:53;32.17;;;19.17;;
66189;SDS011;52992;52.084;5.412;2022-09-24T03:43:20;31.33;;;18.97;;
66189;SDS011;52992;52.084;5.412;2022-09-24T03:45:47;33.00;;;18.67;;
66189;SDS011;52992;52.084;5.412;2022-09-24T03:48:15;27.77;;;17.87;;
66189;SDS011;52992;52.084;5.412;2022-09-24T03:50:42;31.77;;;18.93;;
66189;SDS011;52992;52.084;5.412;2022-09-24T03:53:09;30.60;;;18.80;;
66189;SDS011;52992;52.084;5.412;2022-09-24T03:55:48;30.57;;;17.77;;
66189;SDS011;52992;52.084;5.412;2022-09-24T03:58:19;31.97;;;18.40;;
66189;SDS011;52992;52.084;5.412;2022-09-24T04:00:47;29.93;;;18.20;;
66189;SDS011;52992;52.084;5.412;2022-09-24T04:03:13;28.00;;;18.63;;
66189;SDS011;52992;52.084;5.412;2022-09-24T04:05:41;31.90;;;18.60;;
66189;SDS011;52992;52.084;5.412;2022-09-24T04:08:08;28.57;;;18.27;;
66189;SDS011;52992;52.084;5.412;2022-09-24T04:10:35;29.87;;;18.03;;
66189;SDS011;52992;52.084;5.412;2022-09-24T04:13:02;27.30;;;16.53;;
66189;SDS011;52992;52.084;5.412;2022-09-24T04:15:29;27.03;;;17.87;;
66189;SDS011;52992;52.084;5.412;2022-09-24T04:17:56;30.97;;;18.23;;
66189;SDS011;52992;52.084;5.412;2022-09-24T04:20:26;29.30;;;17.00;;
66189;SDS011;52992;52.084;5.412;2022-09-24T04:22:55;31.30;;;17.80;;
66189;SDS011;52992;52.084;5.412;2022-09-24T04:25:23;29.23;;;17.70;;
66189;SDS011;52992;52.084;5.412;2022-09-24T04:27:54;30.60;;;17.77;;
66189;SDS011;52992;52.084;5.412;2022-09-24T04:30:26;29.63;;;17.20;;
66189;SDS011;52992;52.084;5.412;2022-09-24T04:32:54;31.23;;;17.40;;
66189;SDS011;52992;52.084;5.412;2022-09-24T04:35:25;31.23;;;17.73;;
66189;SDS011;52992;52.084;5.412;2022-09-24T04:37:55;28.83;;;18.47;;
66189;SDS011;52992;52.084;5.412;2022-09-24T04:40:23;26.97;;;16.00;;
66189;SDS011;52992;52.084;5.412;2022-09-24T04:42:50;28.57;;;17.17;;
66189;SDS011;52992;52.084;5.412;2022-09-24T04:45:18;29.07;;;17.43;;
66189;SDS011;52992;52.084;5.412;2022-09-24T04:47:46;25.23;;;16.50;;
66189;SDS011;52992;52.084;5.412;2022-09-24T04:50:18;28.23;;;16.67;;
66189;SDS011;52992;52.084;5.412;2022-09-24T04:52:51;31.50;;;17.53;;
66189;SDS011;52992;52.084;5.412;2022-09-24T04:55:18;27.30;;;16.73;;
66189;SDS011;52992;52.084;5.412;2022-09-24T04:57:46;27.03;;;17.23;;
66189;SDS011;52992;52.084;5.412;2022-09-24T05:00:14;29.33;;;16.77;;
66189;SDS011;52992;52.084;5.412;2022-09-24T05:02:43;28.23;;;17.17;;
66189;SDS011;52992;52.084;5.412;2022-09-24T05:05:10;26.47;;;16.23;;
66189;SDS011;52992;52.084;5.412;2022-09-24T05:07:38;26.83;;;16.57;;
66189;SDS011;52992;52.084;5.412;2022-09-24T05:10:06;29.23;;;16.50;;
66189;SDS011;52992;52.084;5.412;2022-09-24T05:12:33;26.50;;;16.97;;
66189;SDS011;52992;52.084;5.412;2022-09-24T05:15:02;26.13;;;16.03;;
66189;SDS011;52992;52.084;5.412;2022-09-24T05:17:29;27.43;;;15.83;;
66189;SDS011;52992;52.084;5.412;2022-09-24T05:19:56;25.10;;;15.73;;
66189;SDS011;52992;52.084;5.412;2022-09-24T05:22:24;26.03;;;15.67;;
66189;SDS011;52992;52.084;5.412;2022-09-24T05:24:55;28.03;;;16.10;;
66189;SDS011;52992;52.084;5.412;2022-09-24T05:27:22;23.50;;;14.73;;
66189;SDS011;52992;52.084;5.412;2022-09-24T05:29:49;29.40;;;17.03;;
66189;SDS011;52992;52.084;5.412;2022-09-24T05:32:17;25.00;;;15.70;;
66189;SDS011;52992;52.084;5.412;2022-09-24T05:34:45;30.17;;;16.23;;
66189;SDS011;52992;52.084;5.412;2022-09-24T05:37:12;29.50;;;16.13;;
66189;SDS011;52992;52.084;5.412;2022-09-24T05:39:40;24.40;;;15.73;;
66189;SDS011;52992;52.084;5.412;2022-09-24T05:42:11;25.63;;;15.73;;
66189;SDS011;52992;52.084;5.412;2022-09-24T05:44:41;31.50;;;16.50;;
66189;SDS011;52992;52.084;5.412;2022-09-24T05:47:17;24.27;;;15.07;;
66189;SDS011;52992;52.084;5.412;2022-09-24T05:49:44;26.97;;;15.37;;
66189;SDS011;52992;52.084;5.412;2022-09-24T05:52:11;25.83;;;16.23;;
66189;SDS011;52992;52.084;5.412;2022-09-24T05:54:38;25.40;;;15.70;;
66189;SDS011;52992;52.084;5.412;2022-09-24T05:57:05;29.03;;;16.30;;
66189;SDS011;52992;52.084;5.412;2022-09-24T05:59:32;25.83;;;16.00;;
66189;SDS011;52992;52.084;5.412;2022-09-24T06:01:59;24.17;;;15.13;;
66189;SDS011;52992;52.084;5.412;2022-09-24T06:04:26;28.30;;;16.17;;
66189;SDS011;52992;52.084;5.412;2022-09-24T06:06:53;25.63;;;15.57;;
66189;SDS011;52992;52.084;5.412;2022-09-24T06:09:21;24.13;;;14.97;;
66189;SDS011;52992;52.084;5.412;2022-09-24T06:11:48;25.63;;;15.33;;
66189;SDS011;52992;52.084;5.412;2022-09-24T06:14:16;23.83;;;15.70;;
66189;SDS011;52992;52.084;5.412;2022-09-24T06:16:43;26.17;;;15.17;;
66189;SDS011;52992;52.084;5.412;2022-09-24T06:19:10;24.00;;;15.70;;
66189;SDS011;52992;52.084;5.412;2022-09-24T06:21:37;26.60;;;16.97;;
66189;SDS011;52992;52.084;5.412;2022-09-24T06:24:04;24.47;;;15.57;;
66189;SDS011;52992;52.084;5.412;2022-09-24T06:26:30;23.73;;;15.37;;
66189;SDS011;52992;52.084;5.412;2022-09-24T06:28:58;26.00;;;15.57;;
66189;SDS011;52992;52.084;5.412;2022-09-24T06:31:30;31.60;;;15.60;;
66189;SDS011;52992;52.084;5.412;2022-09-24T06:33:57;26.40;;;16.93;;
66189;SDS011;52992;52.084;5.412;2022-09-24T06:36:25;29.17;;;16.93;;
66189;SDS011;52992;52.084;5.412;2022-09-24T06:38:52;24.53;;;15.83;;
66189;SDS011;52992;52.084;5.412;2022-09-24T06:41:19;27.80;;;16.77;;
66189;SDS011;52992;52.084;5.412;2022-09-24T06:43:46;28.00;;;17.07;;
66189;SDS011;52992;52.084;5.412;2022-09-24T06:46:13;26.90;;;15.87;;
66189;SDS011;52992;52.084;5.412;2022-09-24T06:48:41;24.73;;;15.80;;
66189;SDS011;52992;52.084;5.412;2022-09-24T06:51:07;24.83;;;16.53;;
66189;SDS011;52992;52.084;5.412;2022-09-24T06:53:34;26.90;;;16.40;;
66189;SDS011;52992;52.084;5.412;2022-09-24T06:56:01;28.90;;;15.43;;
66189;SDS011;52992;52.084;5.412;2022-09-24T06:58:29;26.40;;;17.03;;
66189;SDS011;52992;52.084;5.412;2022-09-24T07:00:57;27.33;;;16.07;;
66189;SDS011;52992;52.084;5.412;2022-09-24T07:03:26;27.03;;;16.50;;
66189;SDS011;52992;52.084;5.412;2022-09-24T07:06:01;29.47;;;17.07;;
66189;SDS011;52992;52.084;5.412;2022-09-24T07:08:30;28.53;;;17.00;;
66189;SDS011;52992;52.084;5.412;2022-09-24T07:10:57;26.17;;;17.00;;
66189;SDS011;52992;52.084;5.412;2022-09-24T07:13:24;28.03;;;16.70;;
66189;SDS011;52992;52.084;5.412;2022-09-24T07:15:51;30.93;;;18.40;;
66189;SDS011;52992;52.084;5.412;2022-09-24T07:18:18;32.13;;;20.17;;
66189;SDS011;52992;52.084;5.412;2022-09-24T07:20:52;39.23;;;21.13;;
66189;SDS011;52992;52.084;5.412;2022-09-24T07:23:20;34.00;;;19.23;;
66189;SDS011;52992;52.084;5.412;2022-09-24T07:25:47;37.13;;;19.07;;
66189;SDS011;52992;52.084;5.412;2022-09-24T07:28:14;32.20;;;17.83;;
66189;SDS011;52992;52.084;5.412;2022-09-24T07:30:41;37.17;;;19.47;;
66189;SDS011;52992;52.084;5.412;2022-09-24T07:33:08;36.33;;;18.53;;
66189;SDS011;52992;52.084;5.412;2022-09-24T07:35:36;35.27;;;19.77;;
66189;SDS011;52992;52.084;5.412;2022-09-24T07:38:08;38.27;;;20.97;;
66189;SDS011;52992;52.084;5.412;2022-09-24T07:40:41;37.00;;;19.60;;
66189;SDS011;52992;52.084;5.412;2022-09-24T07:43:10;40.73;;;20.13;;
66189;SDS011;52992;52.084;5.412;2022-09-24T07:45:39;37.87;;;20.47;;
66189;SDS011;52992;52.084;5.412;2022-09-24T07:48:08;37.10;;;20.17;;
66189;SDS011;52992;52.084;5.412;2022-09-24T07:50:39;42.83;;;19.87;;
66189;SDS011;52992;52.084;5.412;2022-09-24T07:53:08;40.27;;;20.50;;
66189;SDS011;52992;52.084;5.412;2022-09-24T07:55:37;35.03;;;19.23;;
66189;SDS011;52992;52.084;5.412;2022-09-24T07:58:13;40.03;;;18.80;;
66189;SDS011;52992;52.084;5.412;2022-09-24T08:00:40;36.30;;;19.00;;
66189;SDS011;52992;52.084;5.412;2022-09-24T08:03:08;31.53;;;18.63;;
66189;SDS011;52992;52.084;5.412;2022-09-24T08:05:35;37.70;;;19.37;;
66189;SDS011;52992;52.084;5.412;2022-09-24T08:08:07;40.20;;;20.07;;
66189;SDS011;52992;52.084;5.412;2022-09-24T08:10:34;41.23;;;20.60;;
66189;SDS011;52992;52.084;5.412;2022-09-24T08:13:01;37.60;;;20.13;;
66189;SDS011;52992;52.084;5.412;2022-09-24T08:15:28;39.50;;;20.30;;
66189;SDS011;52992;52.084;5.412;2022-09-24T08:18:04;33.97;;;18.03;;
66189;SDS011;52992;52.084;5.412;2022-09-24T08:20:31;37.67;;;19.47;;
66189;SDS011;52992;52.084;5.412;2022-09-24T08:23:03;38.23;;;19.57;;
66189;SDS011;52992;52.084;5.412;2022-09-24T08:25:35;36.30;;;18.77;;
66189;SDS011;52992;52.084;5.412;2022-09-24T08:28:03;39.80;;;20.47;;
66189;SDS011;52992;52.084;5.412;2022-09-24T08:30:31;41.67;;;21.83;;
66189;SDS011;52992;52.084;5.412;2022-09-24T08:32:58;34.67;;;18.93;;
66189;SDS011;52992;52.084;5.412;2022-09-24T08:35:25;37.87;;;19.43;;
66189;SDS011;52992;52.084;5.412;2022-09-24T08:37:52;40.30;;;20.50;;
66189;SDS011;52992;52.084;5.412;2022-09-24T08:40:23;36.87;;;19.77;;
66189;SDS011;52992;52.084;5.412;2022-09-24T08:45:53;35.00;;;18.30;;
66189;SDS011;52992;52.084;5.412;2022-09-24T08:48:44;36.73;;;18.63;;
66189;SDS011;52992;52.084;5.412;2022-09-24T08:51:17;33.60;;;18.43;;
66189;SDS011;52992;52.084;5.412;2022-09-24T08:56:18;34.23;;;18.47;;
66189;SDS011;52992;52.084;5.412;2022-09-24T09:09:20;34.33;;;18.27;;
66189;SDS011;52992;52.084;5.412;2022-09-24T09:11:50;37.47;;;18.07;;
66189;SDS011;52992;52.084;5.412;2022-09-24T09:14:32;35.90;;;18.03;;
66189;SDS011;52992;52.084;5.412;2022-09-24T09:20:50;38.53;;;21.15;;
66189;SDS011;52992;52.084;5.412;2022-09-24T09:23:05;41.72;;;22.98;;
66189;SDS011;52992;52.084;5.412;2022-09-24T09:25:46;34.50;;;18.47;;
66189;SDS011;52992;52.084;5.412;2022-09-24T09:28:19;32.37;;;16.13;;
66189;SDS011;52992;52.084;5.412;2022-09-24T09:44:48;28.23;;;15.37;;
66189;SDS011;52992;52.084;5.412;2022-09-24T09:47:33;27.63;;;16.10;;
66189;SDS011;52992;52.084;5.412;2022-09-24T09:50:18;25.23;;;15.57;;
66189;SDS011;52992;52.084;5.412;2022-09-24T09:52:51;25.80;;;14.17;;
66189;SDS011;52992;52.084;5.412;2022-09-24T09:55:19;24.17;;;15.13;;
66189;SDS011;52992;52.084;5.412;2022-09-24T09:57:52;23.73;;;14.60;;
66189;SDS011;52992;52.084;5.412;2022-09-24T10:00:34;31.63;;;15.97;;
66189;SDS011;52992;52.084;5.412;2022-09-24T10:03:02;24.87;;;15.03;;
66189;SDS011;52992;52.084;5.412;2022-09-24T10:05:29;25.63;;;14.80;;
66189;SDS011;52992;52.084;5.412;2022-09-24T10:07:56;26.10;;;14.27;;
66189;SDS011;52992;52.084;5.412;2022-09-24T10:10:25;25.43;;;14.77;;
66189;SDS011;52992;52.084;5.412;2022-09-24T10:12:53;26.13;;;15.33;;
66189;SDS011;52992;52.084;5.412;2022-09-24T10:16:18;25.67;;;14.23;;
66189;SDS011;52992;52.084;5.412;2022-09-24T10:18:31;27.27;;;14.33;;
66189;SDS011;52992;52.084;5.412;2022-09-24T10:23:56;24.20;;;13.57;;
66189;SDS011;52992;52.084;5.412;2022-09-24T10:26:36;23.30;;;13.30;;
66189;SDS011;52992;52.084;5.412;2022-09-24T10:29:14;23.73;;;13.10;;
66189;SDS011;52992;52.084;5.412;2022-09-24T10:32:02;25.07;;;14.33;;
66189;SDS011;52992;52.084;5.412;2022-09-24T10:34:30;26.27;;;13.87;;
66189;SDS011;52992;52.084;5.412;2022-09-24T10:37:02;25.17;;;13.80;;
66189;SDS011;52992;52.084;5.412;2022-09-24T10:39:35;23.90;;;14.43;;
66189;SDS011;52992;52.084;5.412;2022-09-24T10:42:02;26.33;;;14.43;;
66189;SDS011;52992;52.084;5.412;2022-09-24T10:44:36;32.43;;;14.03;;
66189;SDS011;52992;52.084;5.412;2022-09-24T10:50:04;25.93;;;13.80;;
66189;SDS011;52992;52.084;5.412;2022-09-24T11:04:13;23.87;;;14.60;;
66189;SDS011;52992;52.084;5.412;2022-09-24T11:09:55;24.23;;;14.30;;
66189;SDS011;52992;52.084;5.412;2022-09-24T11:12:53;24.10;;;13.83;;
66189;SDS011;52992;52.084;5.412;2022-09-24T11:32:35;24.23;;;13.67;;
66189;SDS011;52992;52.084;5.412;2022-09-24T11:38:15;26.77;;;14.43;;
66189;SDS011;52992;52.084;5.412;2022-09-24T11:46:57;25.73;;;14.27;;
66189;SDS011;52992;52.084;5.412;2022-09-24T11:49:42;26.80;;;12.93;;
66189;SDS011;52992;52.084;5.412;2022-09-24T11:52:34;19.20;;;11.87;;
66189;SDS011;52992;52.084;5.412;2022-09-24T11:57:41;19.13;;;12.27;;
66189;SDS011;52992;52.084;5.412;2022-09-24T12:00:31;20.63;;;10.67;;
66189;SDS011;52992;52.084;5.412;2022-09-24T12:03:21;18.60;;;11.33;;
66189;SDS011;52992;52.084;5.412;2022-09-24T12:05:56;15.33;;;9.67;;
66189;SDS011;52992;52.084;5.412;2022-09-24T12:08:36;14.87;;;9.07;;
66189;SDS011;52992;52.084;5.412;2022-09-24T12:11:12;18.17;;;9.23;;
66189;SDS011;52992;52.084;5.412;2022-09-24T12:13:45;17.53;;;8.60;;
66189;SDS011;52992;52.084;5.412;2022-09-24T12:16:42;10.50;;;5.40;;
66189;SDS011;52992;52.084;5.412;2022-09-24T12:19:18;8.53;;;4.60;;
66189;SDS011;52992;52.084;5.412;2022-09-24T12:21:50;10.90;;;4.37;;
66189;SDS011;52992;52.084;5.412;2022-09-24T12:27:15;7.77;;;4.20;;
66189;SDS011;52992;52.084;5.412;2022-09-24T12:29:50;7.07;;;4.30;;
66189;SDS011;52992;52.084;5.412;2022-09-24T12:35:45;6.27;;;3.80;;
66189;SDS011;52992;52.084;5.412;2022-09-24T12:38:22;9.33;;;3.90;;
66189;SDS011;52992;52.084;5.412;2022-09-24T12:46:42;7.53;;;3.93;;
66189;SDS011;52992;52.084;5.412;2022-09-24T12:52:03;7.70;;;4.20;;
66189;SDS011;52992;52.084;5.412;2022-09-24T12:54:42;8.13;;;3.90;;
66189;SDS011;52992;52.084;5.412;2022-09-24T12:57:21;13.17;;;4.20;;
66189;SDS011;52992;52.084;5.412;2022-09-24T12:59:52;13.07;;;3.70;;
66189;SDS011;52992;52.084;5.412;2022-09-24T13:02:42;7.07;;;3.00;;
66189;SDS011;52992;52.084;5.412;2022-09-24T13:10:27;6.37;;;3.27;;
66189;SDS011;52992;52.084;5.412;2022-09-24T13:12:56;9.27;;;3.60;;
66189;SDS011;52992;52.084;5.412;2022-09-24T13:15:28;9.23;;;3.30;;
66189;SDS011;52992;52.084;5.412;2022-09-24T13:20:34;6.17;;;3.03;;
66189;SDS011;52992;52.084;5.412;2022-09-24T13:23:11;9.07;;;3.30;;
66189;SDS011;52992;52.084;5.412;2022-09-24T13:28:26;7.57;;;3.83;;
66189;SDS011;52992;52.084;5.412;2022-09-24T13:31:09;12.90;;;4.57;;
66189;SDS011;52992;52.084;5.412;2022-09-24T13:33:52;8.13;;;3.97;;
66189;SDS011;52992;52.084;5.412;2022-09-24T13:36:26;11.40;;;3.57;;
66189;SDS011;52992;52.084;5.412;2022-09-24T13:39:00;16.40;;;3.80;;
66189;SDS011;52992;52.084;5.412;2022-09-24T13:44:33;7.80;;;3.37;;
66189;SDS011;52992;52.084;5.412;2022-09-24T13:47:20;3.87;;;3.20;;
66189;SDS011;52992;52.084;5.412;2022-09-24T13:50:06;9.40;;;3.23;;
66189;SDS011;52992;52.084;5.412;2022-09-24T13:52:47;5.87;;;3.00;;
66189;SDS011;52992;52.084;5.412;2022-09-24T13:55:22;6.03;;;3.63;;
66189;SDS011;52992;52.084;5.412;2022-09-24T14:01:14;6.87;;;3.27;;
66189;SDS011;52992;52.084;5.412;2022-09-24T14:03:42;7.33;;;3.33;;
66189;SDS011;52992;52.084;5.412;2022-09-24T14:06:18;7.60;;;3.40;;
66189;SDS011;52992;52.084;5.412;2022-09-24T14:08:49;9.90;;;3.57;;
66189;SDS011;52992;52.084;5.412;2022-09-24T14:11:20;5.17;;;3.17;;
66189;SDS011;52992;52.084;5.412;2022-09-24T14:13:52;9.57;;;3.60;;
66189;SDS011;52992;52.084;5.412;2022-09-24T14:16:22;13.87;;;3.90;;
66189;SDS011;52992;52.084;5.412;2022-09-24T14:19:03;17.50;;;3.90;;
66189;SDS011;52992;52.084;5.412;2022-09-24T14:21:32;14.50;;;3.60;;
66189;SDS011;52992;52.084;5.412;2022-09-24T14:24:11;6.83;;;3.03;;
66189;SDS011;52992;52.084;5.412;2022-09-24T14:26:48;10.20;;;3.83;;
66189;SDS011;52992;52.084;5.412;2022-09-24T14:29:53;17.27;;;4.47;;
66189;SDS011;52992;52.084;5.412;2022-09-24T14:32:31;18.60;;;4.10;;
66189;SDS011;52992;52.084;5.412;2022-09-24T14:35:11;7.40;;;4.13;;
66189;SDS011;52992;52.084;5.412;2022-09-24T14:37:50;11.80;;;4.50;;
66189;SDS011;52992;52.084;5.412;2022-09-24T14:40:20;9.63;;;4.27;;
66189;SDS011;52992;52.084;5.412;2022-09-24T14:42:52;13.43;;;4.37;;
66189;SDS011;52992;52.084;5.412;2022-09-24T14:45:26;10.90;;;5.00;;
66189;SDS011;52992;52.084;5.412;2022-09-24T14:48:00;9.10;;;4.80;;
66189;SDS011;52992;52.084;5.412;2022-09-24T14:50:35;19.10;;;5.47;;
66189;SDS011;52992;52.084;5.412;2022-09-24T14:53:11;9.97;;;4.80;;
66189;SDS011;52992;52.084;5.412;2022-09-24T14:55:44;13.47;;;4.67;;
66189;SDS011;52992;52.084;5.412;2022-09-24T14:58:21;10.67;;;5.40;;
66189;SDS011;52992;52.084;5.412;2022-09-24T15:01:37;20.05;;;7.28;;
66189;SDS011;52992;52.084;5.412;2022-09-24T15:03:47;10.83;;;5.67;;
66189;SDS011;52992;52.084;5.412;2022-09-24T15:06:28;10.83;;;5.63;;
66189;SDS011;52992;52.084;5.412;2022-09-24T15:09:14;15.30;;;5.17;;
66189;SDS011;52992;52.084;5.412;2022-09-24T15:12:08;20.23;;;7.57;;
66189;SDS011;52992;52.084;5.412;2022-09-24T15:14:52;12.47;;;5.07;;
66189;SDS011;52992;52.084;5.412;2022-09-24T15:17:21;11.27;;;5.47;;
66189;SDS011;52992;52.084;5.412;2022-09-24T15:19:52;17.30;;;5.50;;
66189;SDS011;52992;52.084;5.412;2022-09-24T15:22:21;13.80;;;5.80;;
66189;SDS011;52992;52.084;5.412;2022-09-24T15:24:48;10.93;;;5.57;;
66189;SDS011;52992;52.084;5.412;2022-09-24T15:27:18;22.60;;;5.20;;
66189;SDS011;52992;52.084;5.412;2022-09-24T15:29:54;15.10;;;5.37;;
66189;SDS011;52992;52.084;5.412;2022-09-24T15:32:28;13.30;;;4.50;;
66189;SDS011;52992;52.084;5.412;2022-09-24T15:34:57;15.43;;;5.07;;
66189;SDS011;52992;52.084;5.412;2022-09-24T15:37:25;10.17;;;4.97;;
66189;SDS011;52992;52.084;5.412;2022-09-24T15:39:58;20.90;;;5.47;;
66189;SDS011;52992;52.084;5.412;2022-09-24T15:42:32;14.80;;;4.63;;
66189;SDS011;52992;52.084;5.412;2022-09-24T15:44:59;19.47;;;4.57;;
66189;SDS011;52992;52.084;5.412;2022-09-24T15:47:26;10.10;;;3.70;;
66189;SDS011;52992;52.084;5.412;2022-09-24T15:49:53;11.30;;;4.00;;
66189;SDS011;52992;52.084;5.412;2022-09-24T15:52:24;21.53;;;4.23;;
66189;SDS011;52992;52.084;5.412;2022-09-24T15:54:53;10.07;;;3.37;;
66189;SDS011;52992;52.084;5.412;2022-09-24T15:57:25;21.87;;;4.17;;
66189;SDS011;52992;52.084;5.412;2022-09-24T15:59:52;10.07;;;3.57;;
66189;SDS011;52992;52.084;5.412;2022-09-24T16:02:22;12.23;;;3.33;;
66189;SDS011;52992;52.084;5.412;2022-09-24T16:04:51;11.87;;;3.87;;
66189;SDS011;52992;52.084;5.412;2022-09-24T16:07:18;10.03;;;3.13;;
66189;SDS011;52992;52.084;5.412;2022-09-24T16:09:44;14.53;;;3.73;;
66189;SDS011;52992;52.084;5.412;2022-09-24T16:12:15;9.30;;;3.40;;
66189;SDS011;52992;52.084;5.412;2022-09-24T16:14:42;11.03;;;2.83;;
66189;SDS011;52992;52.084;5.412;2022-09-24T16:17:10;8.90;;;3.97;;
66189;SDS011;52992;52.084;5.412;2022-09-24T16:19:37;16.53;;;3.63;;
66189;SDS011;52992;52.084;5.412;2022-09-24T16:22:04;9.67;;;3.57;;
66189;SDS011;52992;52.084;5.412;2022-09-24T16:24:31;6.40;;;3.37;;
66189;SDS011;52992;52.084;5.412;2022-09-24T16:26:59;13.10;;;3.33;;
66189;SDS011;52992;52.084;5.412;2022-09-24T16:29:26;12.90;;;3.30;;
66189;SDS011;52992;52.084;5.412;2022-09-24T16:31:53;13.47;;;3.50;;
66189;SDS011;52992;52.084;5.412;2022-09-24T16:34:20;21.00;;;4.20;;
66189;SDS011;52992;52.084;5.412;2022-09-24T16:36:47;14.37;;;3.83;;
66189;SDS011;52992;52.084;5.412;2022-09-24T16:39:14;16.13;;;3.30;;
66189;SDS011;52992;52.084;5.412;2022-09-24T16:41:50;10.30;;;3.40;;
66189;SDS011;52992;52.084;5.412;2022-09-24T16:44:18;27.53;;;4.43;;
66189;SDS011;52992;52.084;5.412;2022-09-24T16:46:45;7.20;;;3.20;;
66189;SDS011;52992;52.084;5.412;2022-09-24T16:49:12;11.27;;;3.10;;
66189;SDS011;52992;52.084;5.412;2022-09-24T16:51:39;6.83;;;3.10;;
66189;SDS011;52992;52.084;5.412;2022-09-24T16:54:06;8.10;;;3.50;;
66189;SDS011;52992;52.084;5.412;2022-09-24T16:56:37;10.63;;;3.10;;
66189;SDS011;52992;52.084;5.412;2022-09-24T16:59:04;11.77;;;3.13;;
66189;SDS011;52992;52.084;5.412;2022-09-24T17:01:31;9.70;;;3.03;;
66189;SDS011;52992;52.084;5.412;2022-09-24T17:03:58;7.40;;;3.07;;